createdAt,value
2023-05-09T00:02:22.467Z,56.65
2023-05-09T00:04:50.537Z,57.20
2023-05-09T00:07:18.444Z,58.49
2023-05-09T00:09:46.781Z,59.95
2023-05-09T00:12:14.718Z,64.53
2023-05-09T00:14:45.616Z,66.63
2023-05-09T00:17:15.937Z,64.03
2023-05-09T00:19:44.473Z,60.51
2023-05-09T00:22:13.260Z,56.40
2023-05-09T00:24:41.446Z,55.34
2023-05-09T00:27:10.347Z,56.27
2023-05-09T00:29:38.306Z,58.14
2023-05-09T00:32:06.397Z,59.54
2023-05-09T00:34:34.450Z,63.49
2023-05-09T00:37:02.556Z,66.37
2023-05-09T00:39:31.002Z,63.33
2023-05-09T00:41:58.924Z,58.19
2023-05-09T00:44:26.870Z,56.05
2023-05-09T00:46:55.272Z,57.36
2023-05-09T00:49:23.423Z,58.64
2023-05-09T00:51:51.855Z,60.20
2023-05-09T00:54:19.832Z,64.67
2023-05-09T00:56:48.028Z,67.16
2023-05-09T00:59:17.467Z,63.43
2023-05-09T01:01:46.173Z,61.13
2023-05-09T01:04:15.325Z,57.94
2023-05-09T01:06:58.094Z,56.21
2023-05-09T01:09:51.258Z,57.09
2023-05-09T01:12:42.135Z,58.09
2023-05-09T01:15:24.282Z,60.02
2023-05-09T01:18:12.160Z,64.68
2023-05-09T01:20:46.683Z,66.47
2023-05-09T01:23:44.609Z,62.77
2023-05-09T01:26:30.849Z,58.97
2023-05-09T01:29:21.395Z,58.22
2023-05-09T01:31:50.831Z,60.05
2023-05-09T01:34:21.627Z,60.74
2023-05-09T01:36:51.911Z,65.67
2023-05-09T01:39:20.637Z,67.15
2023-05-09T01:41:49.813Z,63.48
2023-05-09T01:44:18.499Z,61.67
2023-05-09T01:46:47.735Z,57.71
2023-05-09T01:49:17.808Z,56.14
2023-05-09T01:51:48.437Z,57.78
2023-05-09T01:54:17.977Z,60.46
2023-05-09T01:56:46.981Z,64.55
2023-05-09T01:59:20.662Z,64.71
2023-05-09T02:01:49.852Z,61.63
2023-05-09T02:04:18.931Z,57.56
2023-05-09T02:06:52.432Z,57.02
2023-05-09T02:09:21.192Z,59.59
2023-05-09T02:11:49.373Z,60.75
2023-05-09T02:14:17.830Z,65.08
2023-05-09T02:16:46.162Z,65.81
2023-05-09T02:19:14.163Z,62.22
2023-05-09T02:21:42.188Z,57.85
2023-05-09T02:24:12.004Z,57.20
2023-05-09T02:26:40.620Z,58.46
2023-05-09T02:29:10.905Z,59.70
2023-05-09T02:31:41.585Z,64.44
2023-05-09T02:34:11.036Z,66.34
2023-05-09T02:36:39.267Z,64.07
2023-05-09T02:39:08.226Z,61.13
2023-05-09T02:41:36.085Z,57.38
2023-05-09T02:44:04.082Z,56.15
2023-05-09T02:46:32.193Z,58.81
2023-05-09T02:49:00.830Z,59.87
2023-05-09T02:51:29.598Z,64.25
2023-05-09T02:53:57.640Z,66.30
2023-05-09T02:56:25.571Z,63.29
2023-05-09T02:58:53.444Z,60.88
2023-05-09T03:01:21.343Z,57.51
2023-05-09T03:03:49.390Z,55.91
2023-05-09T03:06:18.034Z,57.56
2023-05-09T03:08:45.942Z,58.94
2023-05-09T03:11:14.511Z,63.54
2023-05-09T03:13:42.637Z,66.61
2023-05-09T03:16:14.635Z,63.22
2023-05-09T03:18:43.101Z,60.49
2023-05-09T03:21:11.134Z,57.05
2023-05-09T03:23:39.886Z,56.01
2023-05-09T03:26:07.837Z,57.92
2023-05-09T03:28:36.318Z,60.52
2023-05-09T03:31:06.433Z,65.23
2023-05-09T03:33:34.558Z,67.18
2023-05-09T03:36:02.945Z,64.75
2023-05-09T03:38:30.847Z,62.44
2023-05-09T03:40:58.841Z,58.74
2023-05-09T03:43:27.185Z,57.35
2023-05-09T03:45:55.108Z,58.65
2023-05-09T03:48:23.638Z,63.69
2023-05-09T03:50:52.326Z,65.21
2023-05-09T03:53:20.784Z,61.65
2023-05-09T03:55:49.933Z,58.05
2023-05-09T03:58:19.510Z,58.34
2023-05-09T04:00:48.128Z,59.91
2023-05-09T04:03:19.798Z,64.37
2023-05-09T04:05:49.058Z,65.84
2023-05-09T04:08:27.859Z,63.03
2023-05-09T04:10:55.935Z,60.31
2023-05-09T04:13:25.360Z,57.29
2023-05-09T04:15:53.676Z,57.42
2023-05-09T04:18:22.228Z,59.80
2023-05-09T04:20:50.108Z,64.77
2023-05-09T04:23:18.551Z,65.24
2023-05-09T04:25:46.595Z,61.78
2023-05-09T04:28:14.502Z,60.91
2023-05-09T04:30:42.460Z,58.86
2023-05-09T04:33:11.544Z,58.33
2023-05-09T04:35:39.561Z,61.03
2023-05-09T04:38:07.894Z,64.67
2023-05-09T04:40:36.482Z,65.91
2023-05-09T04:43:04.428Z,62.04
2023-05-09T04:45:32.356Z,58.43
2023-05-09T04:48:00.851Z,57.29
2023-05-09T04:50:30.314Z,59.35
2023-05-09T04:52:58.270Z,64.65
2023-05-09T04:55:26.386Z,66.46
2023-05-09T04:57:56.382Z,62.55
2023-05-09T05:00:25.037Z,58.24
2023-05-09T05:02:52.996Z,57.00
2023-05-09T05:05:25.151Z,59.42
2023-05-09T05:07:54.411Z,63.21
2023-05-09T05:10:24.465Z,62.13
2023-05-09T05:12:55.997Z,58.27
2023-05-09T05:15:24.856Z,56.27
2023-05-09T05:17:53.297Z,56.32
2023-05-09T05:20:23.380Z,60.36
2023-05-09T05:22:51.880Z,62.90
2023-05-09T05:25:21.194Z,61.50
2023-05-09T05:27:50.096Z,56.91
2023-05-09T05:30:18.219Z,56.36
2023-05-09T05:32:46.524Z,57.72
2023-05-09T05:35:16.995Z,59.17
2023-05-09T05:37:47.083Z,60.44
2023-05-09T05:40:16.484Z,63.33
2023-05-09T05:42:46.803Z,60.88
2023-05-09T05:45:15.139Z,56.94
2023-05-09T05:47:46.467Z,56.59
2023-05-09T05:50:15.424Z,58.65
2023-05-09T05:52:43.769Z,59.56
2023-05-09T05:55:14.168Z,59.50
2023-05-09T05:57:42.641Z,61.19
2023-05-09T06:00:14.758Z,63.12
2023-05-09T06:02:49.988Z,62.04
2023-05-09T06:05:25.862Z,56.51
2023-05-09T06:07:53.873Z,55.85
2023-05-09T06:10:21.883Z,57.52
2023-05-09T06:12:49.872Z,58.83
2023-05-09T06:15:18.664Z,59.57
2023-05-09T06:17:48.201Z,60.98
2023-05-09T06:20:16.172Z,61.23
2023-05-09T06:22:45.071Z,62.57
2023-05-09T06:25:13.139Z,61.11
2023-05-09T06:27:42.208Z,56.94
2023-05-09T06:30:24.805Z,56.04
2023-05-09T06:32:55.263Z,55.91
2023-05-09T06:35:23.365Z,57.89
2023-05-09T06:37:51.238Z,58.74
2023-05-09T06:40:19.335Z,59.46
2023-05-09T06:42:47.285Z,59.36
2023-05-09T06:45:16.143Z,60.11
2023-05-09T06:47:44.425Z,60.71
2023-05-09T06:50:12.341Z,61.39
2023-05-09T06:52:40.362Z,61.33
2023-05-09T06:55:09.257Z,61.20
2023-05-09T06:57:39.521Z,61.55
2023-05-09T07:00:08.057Z,60.95
2023-05-09T07:02:36.054Z,60.86
2023-05-09T07:05:04.288Z,60.79
2023-05-09T07:07:32.163Z,60.21
2023-05-09T07:10:10.683Z,60.60
2023-05-09T07:12:40.976Z,60.58
2023-05-09T07:15:09.622Z,60.51
2023-05-09T07:17:37.597Z,60.00
2023-05-09T07:20:07.206Z,59.91
2023-05-09T07:22:37.413Z,59.26
2023-05-09T07:25:08.934Z,59.03
2023-05-09T07:27:37.419Z,58.40
2023-05-09T07:30:06.442Z,58.30
2023-05-09T07:32:34.357Z,58.08
2023-05-09T07:35:03.410Z,58.28
2023-05-09T07:37:31.904Z,57.57
2023-05-09T07:40:00.456Z,57.45
2023-05-09T07:42:28.466Z,57.17
2023-05-09T07:44:56.806Z,56.60
2023-05-09T07:47:25.409Z,56.46
2023-05-09T07:49:53.415Z,56.27
2023-05-09T07:52:21.622Z,56.33
2023-05-09T07:54:49.717Z,56.34
2023-05-09T07:57:18.093Z,55.88
2023-05-09T07:59:45.999Z,56.16
2023-05-09T08:02:14.087Z,55.80
2023-05-09T08:04:42.351Z,55.82
2023-05-09T08:07:11.907Z,55.60
2023-05-09T08:09:39.951Z,54.87
2023-05-09T08:12:08.229Z,55.41
2023-05-09T08:14:36.164Z,54.85
2023-05-09T08:17:04.219Z,54.88
2023-05-09T08:19:32.137Z,54.43
2023-05-09T08:22:00.847Z,54.53
2023-05-09T08:24:29.554Z,54.16
2023-05-09T08:26:57.483Z,54.31
2023-05-09T08:29:25.394Z,54.54
2023-05-09T08:31:53.436Z,54.07
2023-05-09T08:34:21.500Z,53.41
2023-05-09T08:36:49.385Z,52.95
2023-05-09T08:39:17.315Z,52.62
2023-05-09T08:41:45.816Z,52.99
2023-05-09T08:44:13.805Z,52.33
2023-05-09T08:46:44.659Z,51.72
2023-05-09T08:49:12.716Z,51.84
2023-05-09T08:51:41.220Z,51.30
2023-05-09T08:54:10.681Z,51.09
2023-05-09T08:56:39.194Z,51.21
2023-05-09T08:59:07.545Z,51.13
2023-05-09T09:01:36.214Z,49.93
2023-05-09T09:04:08.785Z,49.49
2023-05-09T09:06:37.143Z,49.80
2023-05-09T09:09:07.221Z,50.02
2023-05-09T09:11:36.336Z,49.90
2023-05-09T09:14:15.533Z,50.43
2023-05-09T09:16:46.387Z,49.45
2023-05-09T09:19:17.741Z,49.39
2023-05-09T09:21:47.605Z,49.31
2023-05-09T09:24:22.006Z,48.84
2023-05-09T09:26:51.195Z,48.15
2023-05-09T09:29:21.082Z,48.09
2023-05-09T09:31:55.136Z,48.02
2023-05-09T09:34:24.131Z,47.63
2023-05-09T09:36:52.284Z,47.38
2023-05-09T09:39:21.817Z,47.29
2023-05-09T09:41:50.070Z,45.79
2023-05-09T09:44:20.980Z,45.74
2023-05-09T09:46:53.987Z,45.56
2023-05-09T09:49:23.013Z,45.28
2023-05-09T09:51:52.682Z,44.98
2023-05-09T09:54:20.997Z,45.69
2023-05-09T09:56:51.978Z,44.76
2023-05-09T09:59:25.950Z,44.44
2023-05-09T10:02:00.346Z,43.81
2023-05-09T10:04:30.030Z,45.00
2023-05-09T10:06:57.954Z,44.57
2023-05-09T10:09:27.752Z,44.22
2023-05-09T10:11:56.945Z,44.88
2023-05-09T10:14:26.803Z,44.82
2023-05-09T10:16:57.590Z,43.93
2023-05-09T10:19:28.730Z,43.47
2023-05-09T10:21:58.908Z,42.98
2023-05-09T10:24:35.523Z,43.16
2023-05-09T10:27:06.321Z,42.41
2023-05-09T10:29:37.805Z,42.44
2023-05-09T10:32:17.824Z,41.85
2023-05-09T10:34:51.340Z,40.23
2023-05-09T10:37:21.788Z,39.87
2023-05-09T10:39:53.677Z,40.43
2023-05-09T10:42:25.460Z,40.40
2023-05-09T10:44:54.144Z,39.46
2023-05-09T10:47:23.041Z,38.13
2023-05-09T10:49:55.136Z,38.24
2023-05-09T10:52:23.226Z,38.67
2023-05-09T10:55:01.837Z,38.28
2023-05-09T10:57:31.371Z,37.96
2023-05-09T11:00:00.593Z,38.02
2023-05-09T11:02:34.085Z,37.65
2023-05-09T11:05:22.848Z,37.53
2023-05-09T11:08:20.800Z,37.28
2023-05-09T11:10:49.286Z,37.91
2023-05-09T11:13:25.708Z,37.60
2023-05-09T11:15:53.580Z,36.65
2023-05-09T11:18:21.497Z,36.27
2023-05-09T11:20:49.694Z,36.54
2023-05-09T11:23:22.058Z,36.25
2023-05-09T11:25:50.049Z,36.33
2023-05-09T11:28:35.724Z,36.34
2023-05-09T11:31:09.859Z,36.70
2023-05-09T11:33:39.272Z,36.94
2023-05-09T11:36:33.592Z,37.07
2023-05-09T11:39:04.685Z,36.28
2023-05-09T11:41:41.127Z,36.01
2023-05-09T11:44:20.191Z,36.76
2023-05-09T11:46:49.508Z,36.69
2023-05-09T11:49:19.577Z,36.60
2023-05-09T11:51:47.606Z,36.85
2023-05-09T11:54:16.717Z,37.03
2023-05-09T11:56:45.274Z,37.48
2023-05-09T11:59:14.847Z,37.08
2023-05-09T12:01:42.924Z,37.25
2023-05-09T12:04:11.081Z,37.13
2023-05-09T12:06:39.033Z,36.74
2023-05-09T12:09:10.411Z,36.16
2023-05-09T12:11:38.328Z,35.76
2023-05-09T12:14:06.265Z,35.18
2023-05-09T12:16:34.382Z,35.16
2023-05-09T12:19:02.430Z,35.46
2023-05-09T12:21:30.336Z,35.94
2023-05-09T12:23:58.302Z,35.75
2023-05-09T12:26:27.193Z,35.42
2023-05-09T12:28:55.781Z,34.95
2023-05-09T12:31:23.877Z,35.30
2023-05-09T12:33:51.880Z,34.68
2023-05-09T12:36:19.903Z,35.00
2023-05-09T12:38:56.864Z,34.86
2023-05-09T12:43:56.213Z,35.17
2023-05-09T12:46:24.369Z,35.57
2023-05-09T12:48:52.460Z,35.44
2023-05-09T12:51:22.230Z,35.45
2023-05-09T12:53:50.239Z,35.20
2023-05-09T12:56:25.399Z,35.47
2023-05-09T12:58:54.940Z,34.21
2023-05-09T13:01:32.066Z,32.98
2023-05-09T13:04:07.662Z,33.18
2023-05-09T13:06:36.398Z,34.02
2023-05-09T13:09:08.229Z,34.18
2023-05-09T13:11:37.830Z,34.38
2023-05-09T13:14:05.816Z,34.13
2023-05-09T13:16:35.066Z,33.57
2023-05-09T13:19:05.207Z,33.57
2023-05-09T13:21:34.174Z,33.69
2023-05-09T13:24:02.876Z,32.77
2023-05-09T13:26:30.976Z,32.33
2023-05-09T13:28:59.294Z,33.11
2023-05-09T13:31:27.496Z,33.13
2023-05-09T13:33:55.742Z,33.60
2023-05-09T13:36:23.718Z,34.20
2023-05-09T13:38:51.731Z,34.26
2023-05-09T13:41:24.146Z,34.47
2023-05-09T13:43:52.320Z,33.63
2023-05-09T13:46:20.338Z,32.42
2023-05-09T13:48:48.489Z,32.52
2023-05-09T13:51:16.375Z,32.28
2023-05-09T13:53:44.261Z,31.80
2023-05-09T13:56:12.316Z,31.88
2023-05-09T13:58:40.270Z,32.05
2023-05-09T14:01:08.202Z,31.12
2023-05-09T14:03:36.308Z,30.70
2023-05-09T14:06:04.421Z,31.01
2023-05-09T14:08:32.402Z,30.70
2023-05-09T14:11:00.316Z,29.93
2023-05-09T14:13:28.551Z,29.99
2023-05-09T14:15:56.722Z,29.44
2023-05-09T14:18:24.700Z,29.08
2023-05-09T14:20:52.726Z,29.06
2023-05-09T14:23:20.685Z,28.86
2023-05-09T14:25:48.548Z,29.30
2023-05-09T14:28:16.890Z,29.13
2023-05-09T14:30:44.861Z,29.83
2023-05-09T14:33:12.847Z,30.36
2023-05-09T14:35:41.795Z,30.80
2023-05-09T14:38:10.156Z,30.66
2023-05-09T14:40:38.132Z,30.65
2023-05-09T14:43:06.059Z,30.32
2023-05-09T14:45:34.039Z,30.02
2023-05-09T14:48:05.411Z,30.46
2023-05-09T14:50:33.522Z,30.72
2023-05-09T14:53:02.144Z,30.90
2023-05-09T14:55:31.351Z,30.59
2023-05-09T14:57:59.578Z,31.12
2023-05-09T15:00:28.789Z,30.87
2023-05-09T15:02:57.882Z,30.61
2023-05-09T15:05:26.056Z,30.08
2023-05-09T15:07:54.026Z,29.34
2023-05-09T15:10:22.288Z,29.47
2023-05-09T15:12:50.240Z,29.63
2023-05-09T15:15:20.669Z,29.98
2023-05-09T15:17:49.320Z,30.25
2023-05-09T15:20:20.642Z,30.26
2023-05-09T15:22:50.004Z,30.13
2023-05-09T15:25:18.385Z,29.90
2023-05-09T15:27:46.403Z,29.65
2023-05-09T15:30:14.810Z,29.74
2023-05-09T15:32:43.085Z,30.16
2023-05-09T15:35:11.103Z,30.66
2023-05-09T15:37:40.721Z,30.76
2023-05-09T15:40:09.309Z,30.56
2023-05-09T15:42:38.841Z,30.45
2023-05-09T15:45:07.683Z,30.23
2023-05-09T15:47:35.651Z,30.36
2023-05-09T15:50:03.842Z,29.92
2023-05-09T15:52:31.953Z,29.77
2023-05-09T15:55:01.092Z,29.82
2023-05-09T15:57:29.496Z,30.03
2023-05-09T15:59:57.540Z,29.82
2023-05-09T16:02:25.610Z,29.96
2023-05-09T16:04:53.613Z,29.97
2023-05-09T16:07:22.024Z,30.16
2023-05-09T16:09:50.321Z,30.10
2023-05-09T16:12:18.315Z,30.35
2023-05-09T16:14:46.478Z,30.41
2023-05-09T16:17:14.475Z,30.71
2023-05-09T16:19:42.537Z,30.76
2023-05-09T16:22:10.511Z,30.74
2023-05-09T16:24:38.593Z,30.97
2023-05-09T16:27:06.622Z,30.84
2023-05-09T16:29:34.563Z,30.79
2023-05-09T16:32:02.770Z,31.10
2023-05-09T16:34:30.875Z,31.18
2023-05-09T16:36:59.102Z,31.49
2023-05-09T16:39:28.109Z,31.53
2023-05-09T16:41:58.145Z,31.10
2023-05-09T16:44:26.523Z,31.33
2023-05-09T16:46:54.489Z,31.62
2023-05-09T16:49:22.448Z,31.44
2023-05-09T16:51:51.478Z,31.60
2023-05-09T16:54:19.423Z,31.64
2023-05-09T16:56:47.399Z,31.70
2023-05-09T16:59:15.403Z,31.80
2023-05-09T17:01:43.543Z,31.77
2023-05-09T17:04:11.701Z,31.01
2023-05-09T17:06:40.181Z,30.37
2023-05-09T17:09:08.159Z,29.43
2023-05-09T17:11:36.054Z,28.52
2023-05-09T17:14:03.924Z,27.91
2023-05-09T17:16:32.120Z,27.01
2023-05-09T17:19:00.381Z,26.93
2023-05-09T17:21:29.337Z,26.39
2023-05-09T17:23:57.273Z,26.05
2023-05-09T17:26:26.102Z,26.14
2023-05-09T17:28:54.046Z,26.62
2023-05-09T17:31:22.148Z,27.01
2023-05-09T17:33:50.524Z,27.31
2023-05-09T17:36:18.446Z,27.74
2023-05-09T17:38:46.592Z,28.28
2023-05-09T17:41:14.489Z,28.66
2023-05-09T17:43:42.372Z,29.12
2023-05-09T17:46:10.462Z,29.60
2023-05-09T17:48:38.825Z,30.78
2023-05-09T17:51:07.501Z,33.04
2023-05-09T17:53:35.585Z,34.18
2023-05-09T17:56:03.603Z,34.78
2023-05-09T17:58:32.012Z,35.44
2023-05-09T18:01:00.492Z,36.84
2023-05-09T18:03:32.557Z,37.40
2023-05-09T18:06:01.897Z,38.05
2023-05-09T18:08:29.945Z,38.42
2023-05-09T18:10:57.957Z,38.43
2023-05-09T18:13:26.068Z,38.89
2023-05-09T18:15:59.485Z,38.97
2023-05-09T18:18:34.452Z,39.68
2023-05-09T18:21:02.500Z,40.14
2023-05-09T18:23:30.540Z,40.74
2023-05-09T18:25:58.541Z,41.40
2023-05-09T18:28:27.522Z,41.93
2023-05-09T18:30:58.269Z,42.83
2023-05-09T18:33:28.212Z,43.08
2023-05-09T18:35:56.112Z,43.93
2023-05-09T18:38:23.991Z,44.18
2023-05-09T18:40:55.405Z,44.50
2023-05-09T18:43:23.352Z,44.92
2023-05-09T18:45:52.041Z,45.39
2023-05-09T18:48:20.154Z,45.60
2023-05-09T18:50:48.657Z,45.80
2023-05-09T18:53:16.659Z,46.11
2023-05-09T18:55:44.650Z,46.34
2023-05-09T18:58:12.578Z,46.56
2023-05-09T19:00:40.564Z,46.96
2023-05-09T19:03:08.513Z,46.68
2023-05-09T19:05:36.632Z,46.94
2023-05-09T19:08:04.828Z,47.29
2023-05-09T19:10:33.819Z,47.56
2023-05-09T19:13:01.824Z,47.81
2023-05-09T19:15:30.367Z,47.97
2023-05-09T19:17:58.453Z,48.20
2023-05-09T19:20:26.701Z,48.32
2023-05-09T19:22:54.748Z,48.59
2023-05-09T19:25:22.952Z,48.88
2023-05-09T19:27:52.764Z,49.03
2023-05-09T19:30:20.989Z,49.19
2023-05-09T19:32:50.983Z,49.36
2023-05-09T19:35:19.030Z,49.40
2023-05-09T19:37:46.999Z,49.57
2023-05-09T19:40:15.113Z,49.78
2023-05-09T19:42:43.332Z,49.60
2023-05-09T19:45:11.825Z,49.52
2023-05-09T19:47:39.800Z,49.91
2023-05-09T19:50:08.304Z,50.00
2023-05-09T19:52:37.291Z,50.14
2023-05-09T19:55:08.282Z,50.32
2023-05-09T19:57:36.591Z,50.49
2023-05-09T20:00:07.172Z,50.73
2023-05-09T20:02:35.167Z,50.65
2023-05-09T20:05:03.925Z,50.75
2023-05-09T20:07:31.912Z,50.75
2023-05-09T20:09:59.892Z,50.90
2023-05-09T20:12:30.056Z,50.97
2023-05-09T20:14:58.503Z,51.07
2023-05-09T20:17:26.574Z,51.07
2023-05-09T20:19:54.737Z,51.16
2023-05-09T20:22:25.632Z,51.21
2023-05-09T20:24:53.641Z,51.18
2023-05-09T20:27:22.149Z,51.29
2023-05-09T20:29:50.076Z,51.38
2023-05-09T20:32:18.146Z,51.45
2023-05-09T20:34:46.094Z,51.38
2023-05-09T20:37:14.335Z,51.47
2023-05-09T20:39:42.287Z,51.59
2023-05-09T20:42:10.336Z,51.70
2023-05-09T20:44:39.498Z,51.84
2023-05-09T20:47:07.698Z,51.99
2023-05-09T20:49:35.687Z,52.05
2023-05-09T20:52:03.906Z,51.92
2023-05-09T20:54:32.008Z,52.19
2023-05-09T20:57:00.123Z,52.38
2023-05-09T20:59:28.411Z,52.37
2023-05-09T21:01:56.425Z,52.58
2023-05-09T21:04:24.623Z,52.46
2023-05-09T21:06:52.773Z,52.62
2023-05-09T21:09:21.004Z,52.85
2023-05-09T21:11:49.269Z,53.02
2023-05-09T21:14:17.448Z,53.12
2023-05-09T21:16:46.851Z,53.06
2023-05-09T21:19:14.878Z,53.07
2023-05-09T21:21:42.820Z,53.09
2023-05-09T21:24:10.855Z,53.12
2023-05-09T21:26:39.045Z,53.19
2023-05-09T21:29:07.246Z,53.41
2023-05-09T21:31:37.967Z,53.48
2023-05-09T21:34:10.423Z,53.57
2023-05-09T21:36:40.065Z,53.58
2023-05-09T21:39:09.762Z,53.59
2023-05-09T21:41:39.663Z,53.58
2023-05-09T21:44:08.012Z,53.61
2023-05-09T21:46:36.698Z,53.73
2023-05-09T21:49:04.863Z,53.73
2023-05-09T21:51:33.607Z,53.85
2023-05-09T21:54:01.628Z,53.99
2023-05-09T21:56:29.832Z,54.00
2023-05-09T21:58:57.789Z,54.04
2023-05-09T22:01:25.764Z,54.10
2023-05-09T22:03:53.892Z,54.23
2023-05-09T22:06:22.182Z,54.32
2023-05-09T22:08:51.278Z,54.50
2023-05-09T22:11:19.450Z,54.67
2023-05-09T22:13:47.536Z,54.67
2023-05-09T22:16:17.985Z,54.67
2023-05-09T22:18:48.143Z,54.80
2023-05-09T22:21:16.060Z,54.90
2023-05-09T22:23:44.119Z,54.95
2023-05-09T22:26:12.501Z,55.00
2023-05-09T22:28:42.608Z,55.05
2023-05-09T22:31:15.346Z,55.13
2023-05-09T22:33:43.317Z,55.31
2023-05-09T22:36:14.601Z,55.52
2023-05-09T22:38:43.254Z,55.68
2023-05-09T22:41:16.732Z,55.64
2023-05-09T22:43:45.191Z,55.76
2023-05-09T22:46:14.146Z,55.82
2023-05-09T22:48:42.123Z,55.74
2023-05-09T22:51:10.317Z,55.93
2023-05-09T22:53:38.208Z,56.18
2023-05-09T22:56:07.644Z,56.32
2023-05-09T22:58:35.598Z,56.30
2023-05-09T23:01:03.881Z,56.43
2023-05-09T23:03:32.013Z,56.49
2023-05-09T23:06:00.142Z,56.56
2023-05-09T23:08:28.131Z,56.75
2023-05-09T23:10:56.086Z,56.73
2023-05-09T23:13:24.039Z,56.89
2023-05-09T23:15:54.412Z,57.06
2023-05-09T23:18:25.813Z,57.23
2023-05-09T23:20:56.482Z,57.51
2023-05-09T23:23:24.512Z,57.65
2023-05-09T23:25:52.486Z,57.82
2023-05-09T23:28:25.261Z,57.93
2023-05-09T23:30:54.210Z,57.97
2023-05-09T23:33:22.500Z,58.07
2023-05-09T23:35:50.630Z,58.23
2023-05-09T23:38:18.635Z,58.31
2023-05-09T23:40:46.790Z,58.34
2023-05-09T23:43:15.303Z,58.39
2023-05-09T23:45:43.337Z,58.34
2023-05-09T23:48:11.463Z,58.36
2023-05-09T23:50:39.581Z,58.29
2023-05-09T23:53:07.663Z,58.49
2023-05-09T23:55:35.639Z,58.48
2023-05-09T23:58:03.694Z,58.50
